createdAt,value
2019-05-09T00:00:33.583Z,9.22
2019-05-09T00:01:33.561Z,9.19
2019-05-09T00:02:33.723Z,9.01
2019-05-09T00:03:33.509Z,9.08
2019-05-09T00:04:33.466Z,8.88
2019-05-09T00:05:33.544Z,8.85
2019-05-09T00:06:33.996Z,8.76
2019-05-09T00:07:33.743Z,8.61
2019-05-09T00:08:33.481Z,8.65
2019-05-09T00:09:33.542Z,8.71
2019-05-09T00:10:41.116Z,8.71
2019-05-09T00:11:33.631Z,8.68
2019-05-09T00:12:33.579Z,8.64
2019-05-09T00:13:34.105Z,8.70
2019-05-09T00:14:34.064Z,8.71
2019-05-09T00:15:33.316Z,8.83
2019-05-09T00:16:33.529Z,8.88
2019-05-09T00:17:33.761Z,8.83
2019-05-09T00:18:33.605Z,8.98
2019-05-09T00:19:33.340Z,9.01
2019-05-09T00:20:33.184Z,8.94
2019-05-09T00:21:33.270Z,8.83
2019-05-09T00:22:33.270Z,8.83
2019-05-09T00:23:33.196Z,8.64
2019-05-09T00:24:33.213Z,8.68
2019-05-09T00:25:33.945Z,8.70
2019-05-09T00:26:33.923Z,8.89
2019-05-09T00:27:33.235Z,8.94
2019-05-09T00:28:33.810Z,9.03
2019-05-09T00:29:33.452Z,9.01
2019-05-09T00:30:33.215Z,9.13
2019-05-09T00:31:33.785Z,9.23
2019-05-09T00:32:33.912Z,9.10
2019-05-09T00:33:34.429Z,9.04
2019-05-09T00:34:33.702Z,8.96
2019-05-09T00:35:33.858Z,8.91
2019-05-09T00:36:33.449Z,8.86
2019-05-09T00:37:32.946Z,8.67
2019-05-09T00:38:33.331Z,8.61
2019-05-09T00:39:33.982Z,8.47
2019-05-09T00:40:34.018Z,8.43
2019-05-09T00:41:33.017Z,8.40
2019-05-09T00:42:33.358Z,8.34
2019-05-09T00:43:34.052Z,8.36
2019-05-09T00:44:33.786Z,8.43
2019-05-09T00:45:33.327Z,8.29
2019-05-09T00:46:33.978Z,8.31
2019-05-09T00:47:32.998Z,8.24
2019-05-09T00:48:33.681Z,8.12
2019-05-09T00:49:34.018Z,7.96
2019-05-09T00:50:33.995Z,7.92
2019-05-09T00:51:33.689Z,7.81
2019-05-09T00:52:33.778Z,7.74
2019-05-09T00:53:33.740Z,7.52
2019-05-09T00:54:33.478Z,7.50
2019-05-09T00:55:33.245Z,7.41
2019-05-09T00:56:33.136Z,7.26
2019-05-09T00:57:33.431Z,7.11
2019-05-09T00:58:33.413Z,7.14
2019-05-09T00:59:33.275Z,7.00
2019-05-09T01:00:33.329Z,6.90
2019-05-09T01:01:31.570Z,6.91
2019-05-09T01:02:33.932Z,6.83
2019-05-09T01:03:33.757Z,6.86
2019-05-09T01:04:33.275Z,6.73
2019-05-09T01:05:31.523Z,6.61
2019-05-09T01:06:33.830Z,6.61
2019-05-09T01:07:33.503Z,6.57
2019-05-09T01:08:33.523Z,6.48
2019-05-09T01:09:33.362Z,6.39
2019-05-09T01:10:31.470Z,6.35
2019-05-09T01:11:33.324Z,6.21
2019-05-09T01:12:31.449Z,6.19
2019-05-09T01:13:31.438Z,6.20
2019-05-09T01:14:33.764Z,6.10
2019-05-09T01:15:33.445Z,6.03
2019-05-09T01:16:33.418Z,5.98
2019-05-09T01:17:33.502Z,6.05
2019-05-09T01:18:33.174Z,5.98
2019-05-09T01:19:33.716Z,5.98
2019-05-09T01:20:33.324Z,5.90
2019-05-09T01:21:33.340Z,5.87
2019-05-09T01:22:33.123Z,5.84
2019-05-09T01:23:31.329Z,5.87
2019-05-09T01:24:33.292Z,5.83
2019-05-09T01:25:33.339Z,5.81
2019-05-09T01:26:33.365Z,5.73
2019-05-09T01:27:31.288Z,5.70
2019-05-09T01:28:33.256Z,5.58
2019-05-09T01:29:33.138Z,5.62
2019-05-09T01:30:33.510Z,5.56
2019-05-09T01:31:33.286Z,5.52
2019-05-09T01:32:31.243Z,5.45
2019-05-09T01:33:33.287Z,5.41
2019-05-09T01:34:33.132Z,5.38
2019-05-09T01:35:31.210Z,5.35
2019-05-09T01:36:31.191Z,5.45
2019-05-09T01:37:31.177Z,5.38
2019-05-09T01:38:31.166Z,5.37
2019-05-09T01:39:33.521Z,5.30
2019-05-09T01:40:33.085Z,5.33
2019-05-09T01:41:33.999Z,5.45
2019-05-09T01:42:31.130Z,5.41
2019-05-09T01:43:31.115Z,5.35
2019-05-09T01:44:33.309Z,5.37
2019-05-09T01:45:31.125Z,5.35
2019-05-09T01:46:31.080Z,5.27
2019-05-09T01:47:31.072Z,5.33
2019-05-09T01:48:31.064Z,5.41
2019-05-09T01:49:31.049Z,5.44
2019-05-09T01:50:31.047Z,5.47
2019-05-09T01:51:31.036Z,5.30
2019-05-09T01:52:31.041Z,5.24
2019-05-09T01:53:33.327Z,5.33
2019-05-09T01:54:33.096Z,5.30
2019-05-09T01:55:30.994Z,5.19
2019-05-09T01:56:30.972Z,5.32
2019-05-09T01:57:30.972Z,5.37
2019-05-09T01:58:30.971Z,5.32
2019-05-09T01:59:30.946Z,5.33
2019-05-09T02:00:33.119Z,5.27
2019-05-09T02:01:30.931Z,5.29
2019-05-09T02:02:30.906Z,5.38
2019-05-09T02:03:30.905Z,5.44
2019-05-09T02:04:33.256Z,5.67
2019-05-09T02:05:30.890Z,5.74
2019-05-09T02:06:32.767Z,5.88
2019-05-09T02:07:33.109Z,6.02
2019-05-09T02:08:30.841Z,5.98
2019-05-09T02:09:30.829Z,5.98
2019-05-09T02:10:30.829Z,6.24
2019-05-09T02:11:40.160Z,6.38
2019-05-09T02:12:33.811Z,6.48
2019-05-09T02:13:30.787Z,6.57
2019-05-09T02:14:30.776Z,6.54
2019-05-09T02:15:30.775Z,6.79
2019-05-09T02:16:30.755Z,7.07
2019-05-09T02:17:30.753Z,7.39
2019-05-09T02:18:30.865Z,7.79
2019-05-09T02:19:33.065Z,8.12
2019-05-09T02:20:32.742Z,8.32
2019-05-09T02:21:30.708Z,8.40
2019-05-09T02:22:30.715Z,8.75
2019-05-09T02:23:30.678Z,9.00
2019-05-09T02:24:30.669Z,9.23
2019-05-09T02:25:30.676Z,9.44
2019-05-09T02:26:30.700Z,9.60
2019-05-09T02:27:30.636Z,9.67
2019-05-09T02:28:30.644Z,9.91
2019-05-09T02:29:30.626Z,10.01
2019-05-09T02:30:30.603Z,9.95
2019-05-09T02:31:30.633Z,9.98
2019-05-09T02:32:30.582Z,10.11
2019-05-09T02:33:30.573Z,10.11
2019-05-09T02:34:30.560Z,10.17
2019-05-09T02:35:38.816Z,10.25
2019-05-09T02:36:31.547Z,10.38
2019-05-09T02:37:30.548Z,10.35
2019-05-09T02:38:30.525Z,10.52
2019-05-09T02:39:30.516Z,10.49
2019-05-09T02:40:30.517Z,10.52
2019-05-09T02:41:30.499Z,10.46
2019-05-09T02:42:30.483Z,10.54
2019-05-09T02:43:30.498Z,10.46
2019-05-09T02:44:30.451Z,10.52
2019-05-09T02:45:30.446Z,10.46
2019-05-09T02:46:30.474Z,10.49
2019-05-09T02:47:30.438Z,10.51
2019-05-09T02:48:30.413Z,10.38
2019-05-09T02:49:30.395Z,10.42
2019-05-09T02:50:30.386Z,10.36
2019-05-09T02:51:30.389Z,10.28
2019-05-09T02:52:30.374Z,10.24
2019-05-09T02:53:30.361Z,10.17
2019-05-09T02:54:30.360Z,10.11
2019-05-09T02:55:30.333Z,10.04
2019-05-09T02:56:30.412Z,10.10
2019-05-09T02:57:30.324Z,10.04
2019-05-09T02:58:30.304Z,10.04
2019-05-09T02:59:30.300Z,10.02
2019-05-09T03:00:30.281Z,9.98
2019-05-09T03:01:30.346Z,9.98
2019-05-09T03:02:30.264Z,9.92
2019-05-09T03:03:30.268Z,9.89
2019-05-09T03:04:30.256Z,9.75
2019-05-09T03:05:30.253Z,9.67
2019-05-09T03:06:30.229Z,9.63
2019-05-09T03:07:30.211Z,9.56
2019-05-09T03:08:30.211Z,9.62
2019-05-09T03:09:30.180Z,9.65
2019-05-09T03:10:30.169Z,9.68
2019-05-09T03:11:30.189Z,9.86
2019-05-09T03:12:35.411Z,9.86
2019-05-09T03:13:31.144Z,9.89
2019-05-09T03:14:30.127Z,9.88
2019-05-09T03:15:30.118Z,9.83
2019-05-09T03:16:30.125Z,9.83
2019-05-09T03:17:30.107Z,9.86
2019-05-09T03:18:30.081Z,9.85
2019-05-09T03:19:30.130Z,9.83
2019-05-09T03:20:30.059Z,9.62
2019-05-09T03:21:30.182Z,9.59
2019-05-09T03:22:30.059Z,9.59
2019-05-09T03:23:30.028Z,9.60
2019-05-09T03:24:30.019Z,9.49
2019-05-09T03:25:30.019Z,9.44
2019-05-09T03:26:29.994Z,9.31
2019-05-09T03:27:29.994Z,9.23
2019-05-09T03:28:29.984Z,9.15
2019-05-09T03:29:29.975Z,9.08
2019-05-09T03:30:29.965Z,9.06
2019-05-09T03:31:30.171Z,9.20
2019-05-09T03:32:30.028Z,9.32
2019-05-09T03:33:35.289Z,9.23
2019-05-09T03:34:30.929Z,9.19
2019-05-09T03:35:29.947Z,8.96
2019-05-09T03:36:29.942Z,8.83
2019-05-09T03:37:29.886Z,8.68
2019-05-09T03:38:29.865Z,8.58
2019-05-09T03:39:29.854Z,8.45
2019-05-09T03:40:29.844Z,8.31
2019-05-09T03:41:29.833Z,8.09
2019-05-09T03:42:41.119Z,8.06
2019-05-09T03:43:30.814Z,7.73
2019-05-09T03:44:29.800Z,7.54
2019-05-09T03:45:29.789Z,7.50
2019-05-09T03:46:29.780Z,7.50
2019-05-09T03:47:29.794Z,7.48
2019-05-09T03:48:29.772Z,7.41
2019-05-09T03:49:29.746Z,7.23
2019-05-09T03:50:29.737Z,7.21
2019-05-09T03:51:29.736Z,7.11
2019-05-09T03:52:29.801Z,7.00
2019-05-09T03:53:29.714Z,6.93
2019-05-09T03:54:29.707Z,6.76
2019-05-09T03:55:29.687Z,6.82
2019-05-09T03:56:29.670Z,6.69
2019-05-09T03:57:29.672Z,6.61
2019-05-09T03:58:29.658Z,6.53
2019-05-09T03:59:29.637Z,6.48
2019-05-09T04:00:29.626Z,6.35
2019-05-09T04:01:29.617Z,6.28
2019-05-09T04:02:29.618Z,6.30
2019-05-09T04:03:29.618Z,6.71
2019-05-09T04:04:29.590Z,6.94
2019-05-09T04:05:29.571Z,7.12
2019-05-09T04:06:29.566Z,7.24
2019-05-09T04:07:29.886Z,7.36
2019-05-09T04:08:29.551Z,7.39
2019-05-09T04:09:29.550Z,7.33
2019-05-09T04:10:29.519Z,7.29
2019-05-09T04:11:29.509Z,7.27
2019-05-09T04:12:29.500Z,7.41
2019-05-09T04:13:29.501Z,7.41
2019-05-09T04:14:29.475Z,7.60
2019-05-09T04:15:29.478Z,7.67
2019-05-09T04:16:29.509Z,7.86
2019-05-09T04:17:29.447Z,7.95
2019-05-09T04:18:29.452Z,8.02
2019-05-09T04:19:29.429Z,8.03
2019-05-09T04:20:29.413Z,8.06
2019-05-09T04:21:29.414Z,8.02
2019-05-09T04:22:29.476Z,7.99
2019-05-09T04:23:29.402Z,8.06
2019-05-09T04:24:29.384Z,8.04
2019-05-09T04:25:29.354Z,8.17
2019-05-09T04:26:29.361Z,8.12
2019-05-09T04:27:29.850Z,8.00
2019-05-09T04:28:29.332Z,7.95
2019-05-09T04:29:29.318Z,8.09
2019-05-09T04:30:29.406Z,8.28
2019-05-09T04:31:29.291Z,8.45
2019-05-09T04:32:29.289Z,8.47
2019-05-09T04:33:29.294Z,8.45
2019-05-09T04:34:29.266Z,8.52
2019-05-09T04:35:29.247Z,8.58
2019-05-09T04:36:29.247Z,8.58
2019-05-09T04:37:31.125Z,8.61
2019-05-09T04:38:29.225Z,8.70
2019-05-09T04:39:29.210Z,8.73
2019-05-09T04:40:31.986Z,8.71
2019-05-09T04:41:29.202Z,8.71
2019-05-09T04:42:29.192Z,8.76
2019-05-09T04:43:35.483Z,8.73
2019-05-09T04:44:30.156Z,8.76
2019-05-09T04:45:33.241Z,8.89
2019-05-09T04:46:30.158Z,8.86
2019-05-09T04:47:29.140Z,8.88
2019-05-09T04:48:29.114Z,8.82
2019-05-09T04:49:30.020Z,8.91
2019-05-09T04:50:29.087Z,8.82
2019-05-09T04:51:29.075Z,8.79
2019-05-09T04:52:29.065Z,8.75
2019-05-09T04:53:29.062Z,8.85
2019-05-09T04:54:29.063Z,8.85
2019-05-09T04:55:29.041Z,8.75
2019-05-09T04:56:29.036Z,8.64
2019-05-09T04:57:29.009Z,8.82
2019-05-09T04:58:29.021Z,8.94
2019-05-09T04:59:29.035Z,9.06
2019-05-09T05:00:29.029Z,9.17
2019-05-09T05:01:28.965Z,9.35
2019-05-09T05:02:28.954Z,9.45
2019-05-09T05:03:28.951Z,9.68
2019-05-09T05:04:28.955Z,9.86
2019-05-09T05:05:28.950Z,9.99
2019-05-09T05:06:28.918Z,10.17
2019-05-09T05:07:28.937Z,10.36
2019-05-09T05:08:28.943Z,10.62
2019-05-09T05:09:28.900Z,10.78
2019-05-09T05:10:28.867Z,10.84
2019-05-09T05:11:28.861Z,10.76
2019-05-09T05:12:28.916Z,10.78
2019-05-09T05:13:29.732Z,10.76
2019-05-09T05:14:28.837Z,10.90
2019-05-09T05:15:28.821Z,10.83
2019-05-09T05:16:28.804Z,10.91
2019-05-09T05:17:30.732Z,10.86
2019-05-09T05:18:28.861Z,10.99
2019-05-09T05:19:31.493Z,10.95
2019-05-09T05:20:28.770Z,10.91
2019-05-09T05:21:28.759Z,10.98
2019-05-09T05:22:28.754Z,10.95
2019-05-09T05:23:28.744Z,11.05
2019-05-09T05:24:28.835Z,11.08
2019-05-09T05:25:28.707Z,11.24
2019-05-09T05:26:28.703Z,11.36
2019-05-09T05:27:28.771Z,11.42
2019-05-09T05:28:28.682Z,11.38
2019-05-09T05:29:28.682Z,11.39
2019-05-09T05:30:28.660Z,11.46
2019-05-09T05:31:28.748Z,11.46
2019-05-09T05:32:28.642Z,11.36
2019-05-09T05:33:28.630Z,11.30
2019-05-09T05:34:28.719Z,11.24
2019-05-09T05:35:28.605Z,11.26
2019-05-09T05:36:28.604Z,11.33
2019-05-09T05:37:28.576Z,11.56
2019-05-09T05:38:28.586Z,11.60
2019-05-09T05:39:28.574Z,11.67
2019-05-09T05:40:32.902Z,11.93
2019-05-09T05:41:29.532Z,11.98
2019-05-09T05:42:28.550Z,11.97
2019-05-09T05:43:40.595Z,12.11
2019-05-09T05:44:29.582Z,12.13
2019-05-09T05:45:28.567Z,12.16
2019-05-09T05:46:28.698Z,12.22
2019-05-09T05:47:29.373Z,12.33
2019-05-09T05:48:28.457Z,12.41
2019-05-09T05:49:28.524Z,12.41
2019-05-09T05:50:28.457Z,12.48
2019-05-09T05:51:28.432Z,12.52
2019-05-09T05:52:28.420Z,12.55
2019-05-09T05:53:28.455Z,12.58
2019-05-09T05:54:28.403Z,12.63
2019-05-09T05:55:28.389Z,12.74
2019-05-09T05:56:28.379Z,12.88
2019-05-09T05:57:28.416Z,12.96
2019-05-09T05:58:28.447Z,13.21
2019-05-09T05:59:28.849Z,13.63
2019-05-09T06:00:28.663Z,14.44
2019-05-09T06:01:28.321Z,15.12
2019-05-09T06:02:28.344Z,15.04
2019-05-09T06:03:28.397Z,15.01
2019-05-09T06:04:28.308Z,14.94
2019-05-09T06:05:28.289Z,15.11
2019-05-09T06:06:28.267Z,15.93
2019-05-09T06:07:28.589Z,16.80
2019-05-09T06:08:28.287Z,17.27
2019-05-09T06:09:28.248Z,17.32
2019-05-09T06:10:29.055Z,17.39
2019-05-09T06:11:28.336Z,17.35
2019-05-09T06:12:28.199Z,17.89
2019-05-09T06:13:28.189Z,17.98
2019-05-09T06:14:28.627Z,17.57
2019-05-09T06:15:28.967Z,17.25
2019-05-09T06:16:28.279Z,17.28
2019-05-09T06:17:28.701Z,17.24
2019-05-09T06:18:28.162Z,17.18
2019-05-09T06:19:28.768Z,17.05
2019-05-09T06:20:28.309Z,17.30
2019-05-09T06:21:28.441Z,17.68
2019-05-09T06:22:28.102Z,17.92
2019-05-09T06:23:28.336Z,17.18
2019-05-09T06:24:28.418Z,16.42
2019-05-09T06:25:30.476Z,15.62
2019-05-09T06:26:29.245Z,15.11
2019-05-09T06:27:28.057Z,14.66
2019-05-09T06:28:28.024Z,14.31
2019-05-09T06:29:28.815Z,13.90
2019-05-09T06:30:28.224Z,13.73
2019-05-09T06:31:28.554Z,13.51
2019-05-09T06:32:28.147Z,13.55
2019-05-09T06:33:28.684Z,13.43
2019-05-09T06:34:27.968Z,13.35
2019-05-09T06:35:28.350Z,13.29
2019-05-09T06:36:28.450Z,13.27
2019-05-09T06:37:27.921Z,13.09
2019-05-09T06:38:28.316Z,12.98
2019-05-09T06:39:28.485Z,12.96
2019-05-09T06:40:28.674Z,12.77
2019-05-09T06:41:28.627Z,12.66
2019-05-09T06:42:28.622Z,12.59
2019-05-09T06:43:29.006Z,12.36
2019-05-09T06:44:28.329Z,12.13
2019-05-09T06:45:27.842Z,12.03
2019-05-09T06:46:27.860Z,11.85
2019-05-09T06:47:27.879Z,11.69
2019-05-09T06:48:28.423Z,11.62
2019-05-09T06:49:31.440Z,11.48
2019-05-09T06:50:27.778Z,11.39
2019-05-09T06:51:27.863Z,11.33
2019-05-09T06:52:28.307Z,11.28
2019-05-09T06:53:27.747Z,11.27
2019-05-09T06:54:27.985Z,11.23
2019-05-09T06:55:29.731Z,11.11
2019-05-09T06:56:28.428Z,11.05
2019-05-09T06:57:28.228Z,11.08
2019-05-09T06:58:27.825Z,11.05
2019-05-09T06:59:28.359Z,11.03
2019-05-09T07:00:28.321Z,11.03
2019-05-09T07:01:28.556Z,10.99
2019-05-09T07:02:28.326Z,10.98
2019-05-09T07:03:28.353Z,11.01
2019-05-09T07:04:27.798Z,10.99
2019-05-09T07:05:29.238Z,11.02
2019-05-09T07:06:28.311Z,10.98
2019-05-09T07:07:28.094Z,11.03
2019-05-09T07:08:31.163Z,10.98
2019-05-09T07:09:28.070Z,11.02
2019-05-09T07:10:28.365Z,11.09
2019-05-09T07:11:27.659Z,11.11
2019-05-09T07:12:27.565Z,11.19
2019-05-09T07:13:27.650Z,11.19
2019-05-09T07:14:31.889Z,11.17
2019-05-09T07:15:28.510Z,11.35
2019-05-09T07:16:27.739Z,11.49
2019-05-09T07:17:31.875Z,11.46
2019-05-09T07:18:27.754Z,11.53
2019-05-09T07:19:28.068Z,11.62
2019-05-09T07:20:28.464Z,11.64
2019-05-09T07:21:28.612Z,11.62
2019-05-09T07:22:28.173Z,11.67
2019-05-09T07:23:28.251Z,11.82
2019-05-09T07:24:28.675Z,11.84
2019-05-09T07:25:27.840Z,12.03
2019-05-09T07:26:28.093Z,12.00
2019-05-09T07:27:28.559Z,11.98
2019-05-09T07:28:28.232Z,12.08
2019-05-09T07:29:28.445Z,11.97
2019-05-09T07:30:29.106Z,12.01
2019-05-09T07:31:28.430Z,11.98
2019-05-09T07:32:27.771Z,12.05
2019-05-09T07:33:27.933Z,12.01
2019-05-09T07:34:27.784Z,11.93
2019-05-09T07:35:27.890Z,11.87
2019-05-09T07:36:27.844Z,11.88
2019-05-09T07:37:27.557Z,11.98
2019-05-09T07:38:27.735Z,11.97
2019-05-09T07:39:27.686Z,12.04
2019-05-09T07:40:30.471Z,12.18
2019-05-09T07:41:28.245Z,12.12
2019-05-09T07:42:28.468Z,12.13
2019-05-09T07:43:28.180Z,12.22
2019-05-09T07:44:33.189Z,12.25
2019-05-09T07:45:28.312Z,12.36
2019-05-09T07:46:28.605Z,12.52
2019-05-09T07:47:28.211Z,12.51
2019-05-09T07:48:28.547Z,12.62
2019-05-09T07:49:28.354Z,12.54
2019-05-09T07:50:27.787Z,12.61
2019-05-09T07:51:27.606Z,12.71
2019-05-09T07:52:28.418Z,12.70
2019-05-09T07:53:28.406Z,12.63
2019-05-09T07:54:29.326Z,12.73
2019-05-09T07:55:27.529Z,12.79
2019-05-09T07:56:28.452Z,12.71
2019-05-09T07:57:28.563Z,12.85
2019-05-09T07:58:28.379Z,12.80
2019-05-09T07:59:27.557Z,12.84
2019-05-09T08:00:27.743Z,12.85
2019-05-09T08:01:28.032Z,12.91
2019-05-09T08:02:28.202Z,12.89
2019-05-09T08:03:27.620Z,12.88
2019-05-09T08:04:28.609Z,13.01
2019-05-09T08:05:28.011Z,13.27
2019-05-09T08:06:28.702Z,13.54
2019-05-09T08:07:29.063Z,13.93
2019-05-09T08:08:27.790Z,14.23
2019-05-09T08:09:28.103Z,14.19
2019-05-09T08:10:30.628Z,14.34
2019-05-09T08:11:29.475Z,14.49
2019-05-09T08:12:28.381Z,14.98
2019-05-09T08:13:28.936Z,16.14
2019-05-09T08:14:28.086Z,16.45
2019-05-09T08:15:27.985Z,16.42
2019-05-09T08:16:27.911Z,16.10
2019-05-09T08:17:28.594Z,15.99
2019-05-09T08:18:28.148Z,15.59
2019-05-09T08:19:27.473Z,15.15
2019-05-09T08:20:27.747Z,15.01
2019-05-09T08:21:27.682Z,14.75
2019-05-09T08:22:31.822Z,14.75
2019-05-09T08:23:27.798Z,14.78
2019-05-09T08:24:27.723Z,14.86
2019-05-09T08:25:27.696Z,14.82
2019-05-09T08:26:29.764Z,14.85
2019-05-09T08:27:30.125Z,14.94
2019-05-09T08:28:28.071Z,15.03
2019-05-09T08:29:28.232Z,15.04
2019-05-09T08:30:32.889Z,14.91
2019-05-09T08:31:28.205Z,15.04
2019-05-09T08:32:28.594Z,15.03
2019-05-09T08:33:28.703Z,15.15
2019-05-09T08:34:28.469Z,15.04
2019-05-09T08:35:27.941Z,15.03
2019-05-09T08:36:28.151Z,15.09
2019-05-09T08:37:28.278Z,15.41
2019-05-09T08:38:28.242Z,15.34
2019-05-09T08:39:27.669Z,15.35
2019-05-09T08:40:28.466Z,15.37
2019-05-09T08:41:29.127Z,15.66
2019-05-09T08:42:26.570Z,15.70
2019-05-09T08:43:28.305Z,15.67
2019-05-09T08:44:30.240Z,15.58
2019-05-09T08:45:30.776Z,15.62
2019-05-09T08:46:28.593Z,15.64
2019-05-09T08:47:27.797Z,15.40
2019-05-09T08:48:28.282Z,15.41
2019-05-09T08:49:28.564Z,15.46
2019-05-09T08:50:28.116Z,15.37
2019-05-09T08:51:35.310Z,15.19
2019-05-09T08:52:28.721Z,15.13
2019-05-09T08:53:27.586Z,15.15
2019-05-09T08:54:27.380Z,15.34
2019-05-09T08:55:27.797Z,15.49
2019-05-09T08:56:28.327Z,15.66
2019-05-09T08:57:28.853Z,15.66
2019-05-09T08:58:27.773Z,15.60
2019-05-09T08:59:27.640Z,15.58
2019-05-09T09:00:28.192Z,15.51
2019-05-09T09:01:35.286Z,15.48
2019-05-09T09:02:28.327Z,15.43
2019-05-09T09:03:28.251Z,15.52
2019-05-09T09:04:29.283Z,15.34
2019-05-09T09:05:28.644Z,15.33
2019-05-09T09:06:27.840Z,15.43
2019-05-09T09:07:29.476Z,15.44
2019-05-09T09:08:28.421Z,15.40
2019-05-09T09:09:28.427Z,15.62
2019-05-09T09:10:28.485Z,15.84
2019-05-09T09:11:27.996Z,15.88
2019-05-09T09:12:33.736Z,16.04
2019-05-09T09:13:28.350Z,16.04
2019-05-09T09:14:27.907Z,16.08
2019-05-09T09:15:50.322Z,15.98
2019-05-09T09:16:28.332Z,15.95
2019-05-09T09:17:27.947Z,15.91
2019-05-09T09:18:28.286Z,15.93
2019-05-09T09:19:28.005Z,15.84
2019-05-09T09:20:28.546Z,15.85
2019-05-09T09:21:28.519Z,15.70
2019-05-09T09:22:28.387Z,15.41
2019-05-09T09:23:42.347Z,15.19
2019-05-09T09:24:28.320Z,15.07
2019-05-09T09:25:28.474Z,15.07
2019-05-09T09:26:27.704Z,15.12
2019-05-09T09:27:27.344Z,15.13
2019-05-09T09:28:27.631Z,15.43
2019-05-09T09:29:28.300Z,15.41
2019-05-09T09:30:28.910Z,15.49
2019-05-09T09:31:28.349Z,15.62
2019-05-09T09:32:28.061Z,15.49
2019-05-09T09:33:28.022Z,15.92
2019-05-09T09:34:27.734Z,16.01
2019-05-09T09:35:27.767Z,16.22
2019-05-09T09:36:27.554Z,16.40
2019-05-09T09:37:28.319Z,16.50
2019-05-09T09:38:28.145Z,16.30
2019-05-09T09:39:27.556Z,16.17
2019-05-09T09:40:27.932Z,16.14
2019-05-09T09:41:28.532Z,16.29
2019-05-09T09:42:28.250Z,16.40
2019-05-09T09:43:28.004Z,16.25
2019-05-09T09:44:28.498Z,16.27
2019-05-09T09:45:27.979Z,16.16
2019-05-09T09:46:25.855Z,16.04
2019-05-09T09:47:28.394Z,16.08
2019-05-09T09:48:28.333Z,16.03
2019-05-09T09:49:25.829Z,15.95
2019-05-09T09:50:27.628Z,16.06
2019-05-09T09:51:27.617Z,16.25
2019-05-09T09:52:25.775Z,16.33
2019-05-09T09:53:27.820Z,16.42
2019-05-09T09:54:27.962Z,16.11
2019-05-09T09:55:27.826Z,16.06
2019-05-09T09:56:27.999Z,16.07
2019-05-09T09:57:25.734Z,16.17
2019-05-09T09:58:27.364Z,16.33
2019-05-09T09:59:28.136Z,16.33
2019-05-09T10:00:25.734Z,16.18
2019-05-09T10:01:25.677Z,16.06
2019-05-09T10:02:27.791Z,16.06
2019-05-09T10:03:25.712Z,16.06
2019-05-09T10:04:28.209Z,16.01
2019-05-09T10:05:27.695Z,15.89
2019-05-09T10:06:28.288Z,15.84
2019-05-09T10:07:27.847Z,15.60
2019-05-09T10:08:25.629Z,15.46
2019-05-09T10:09:25.585Z,15.18
2019-05-09T10:10:25.584Z,15.13
2019-05-09T10:11:25.568Z,15.13
2019-05-09T10:12:25.552Z,15.12
2019-05-09T10:13:25.544Z,15.07
2019-05-09T10:14:28.358Z,15.01
2019-05-09T10:15:27.932Z,14.93
2019-05-09T10:16:29.985Z,14.80
2019-05-09T10:17:28.118Z,14.69
2019-05-09T10:18:27.662Z,14.74
2019-05-09T10:19:27.764Z,14.79
2019-05-09T10:20:25.477Z,14.64
2019-05-09T10:21:27.547Z,14.61
2019-05-09T10:22:26.567Z,14.54
2019-05-09T10:23:25.433Z,14.48
2019-05-09T10:24:28.002Z,14.46
2019-05-09T10:25:27.491Z,14.39
2019-05-09T10:26:28.178Z,14.35
2019-05-09T10:27:25.394Z,14.30
2019-05-09T10:28:25.382Z,14.31
2019-05-09T10:29:25.369Z,14.34
2019-05-09T10:30:25.373Z,14.23
2019-05-09T10:31:28.068Z,14.24
2019-05-09T10:32:25.335Z,14.35
2019-05-09T10:33:25.330Z,14.31
2019-05-09T10:34:25.333Z,14.27
2019-05-09T10:35:25.329Z,14.26
2019-05-09T10:36:27.649Z,14.29
2019-05-09T10:37:25.288Z,14.26
2019-05-09T10:38:27.818Z,14.30
2019-05-09T10:39:27.541Z,14.41
2019-05-09T10:40:25.270Z,14.41
2019-05-09T10:41:25.237Z,14.39
2019-05-09T10:42:25.236Z,14.46
2019-05-09T10:43:35.973Z,14.49
2019-05-09T10:44:28.316Z,14.63
2019-05-09T10:45:25.224Z,14.82
2019-05-09T10:46:25.230Z,15.00
2019-05-09T10:47:27.194Z,15.03
2019-05-09T10:48:25.183Z,15.07
2019-05-09T10:49:25.196Z,15.12
2019-05-09T10:50:25.183Z,15.15
2019-05-09T10:51:25.138Z,15.33
2019-05-09T10:52:25.117Z,15.35
2019-05-09T10:53:25.197Z,15.41
2019-05-09T10:54:27.730Z,15.60
2019-05-09T10:55:25.084Z,15.74
2019-05-09T10:56:27.822Z,15.84
2019-05-09T10:57:25.089Z,15.98
2019-05-09T10:58:25.060Z,15.96
2019-05-09T10:59:25.036Z,15.99
2019-05-09T11:00:25.033Z,15.96
2019-05-09T11:01:25.025Z,15.95
2019-05-09T11:02:25.044Z,16.03
2019-05-09T11:03:24.995Z,16.04
2019-05-09T11:04:24.982Z,15.99
2019-05-09T11:05:24.973Z,15.92
2019-05-09T11:06:24.977Z,15.84
2019-05-09T11:07:24.969Z,16.08
2019-05-09T11:08:24.942Z,16.50
2019-05-09T11:09:24.975Z,16.78
2019-05-09T11:10:29.458Z,16.99
2019-05-09T11:11:28.160Z,16.99
2019-05-09T11:12:27.361Z,17.14
2019-05-09T11:13:24.886Z,17.05
2019-05-09T11:14:33.516Z,16.95
2019-05-09T11:15:25.909Z,16.96
2019-05-09T11:16:39.613Z,16.80
2019-05-09T11:17:25.870Z,16.77
2019-05-09T11:18:24.829Z,16.77
2019-05-09T11:19:24.820Z,17.10
2019-05-09T11:20:24.812Z,17.71
2019-05-09T11:21:24.832Z,17.95
2019-05-09T11:22:24.796Z,18.62
2019-05-09T11:23:24.795Z,19.23
2019-05-09T11:24:40.582Z,19.80
2019-05-09T11:25:27.744Z,20.42
2019-05-09T11:26:24.762Z,20.56
2019-05-09T11:27:24.774Z,20.25
2019-05-09T11:28:24.718Z,20.75
2019-05-09T11:29:24.708Z,20.35
2019-05-09T11:30:24.700Z,19.61
2019-05-09T11:31:24.707Z,18.96
2019-05-09T11:32:24.717Z,18.17
2019-05-09T11:33:24.708Z,17.68
2019-05-09T11:34:24.671Z,17.27
2019-05-09T11:35:24.644Z,17.32
2019-05-09T11:36:24.633Z,17.17
2019-05-09T11:37:24.637Z,17.43
2019-05-09T11:38:32.527Z,18.01
2019-05-09T11:39:36.506Z,17.70
2019-05-09T11:40:25.599Z,17.76
2019-05-09T11:41:24.588Z,17.47
2019-05-09T11:42:24.584Z,17.25
2019-05-09T11:43:24.559Z,17.03
2019-05-09T11:44:24.545Z,16.63
2019-05-09T11:45:24.533Z,17.32
2019-05-09T11:46:24.557Z,17.99
2019-05-09T11:47:33.649Z,18.11
2019-05-09T11:48:25.500Z,17.49
2019-05-09T11:49:24.491Z,16.99
2019-05-09T11:50:24.481Z,16.45
2019-05-09T11:51:24.472Z,16.32
2019-05-09T11:52:24.479Z,16.16
2019-05-09T11:53:24.503Z,16.96
2019-05-09T11:54:24.442Z,17.49
2019-05-09T11:55:34.706Z,17.63
2019-05-09T11:56:25.419Z,17.14
2019-05-09T11:57:27.563Z,17.63
2019-05-09T11:58:25.400Z,18.78
2019-05-09T11:59:24.402Z,19.57
2019-05-09T12:00:24.417Z,20.17
2019-05-09T12:01:24.360Z,19.98
2019-05-09T12:02:24.381Z,19.68
2019-05-09T12:03:24.337Z,19.90
2019-05-09T12:04:24.335Z,20.23
2019-05-09T12:05:24.380Z,20.42
2019-05-09T12:06:24.349Z,20.56
2019-05-09T12:07:24.364Z,20.82
2019-05-09T12:08:24.287Z,20.13
2019-05-09T12:09:24.274Z,20.02
2019-05-09T12:10:24.272Z,19.50
2019-05-09T12:11:24.258Z,19.83
2019-05-09T12:12:24.255Z,20.56
2019-05-09T12:13:24.246Z,20.90
2019-05-09T12:14:24.258Z,20.19
2019-05-09T12:15:24.216Z,19.61
2019-05-09T12:16:24.239Z,19.13
2019-05-09T12:17:24.245Z,18.69
2019-05-09T12:18:24.227Z,18.16
2019-05-09T12:19:24.188Z,17.76
2019-05-09T12:20:24.156Z,17.24
2019-05-09T12:21:24.151Z,16.69
2019-05-09T12:22:24.221Z,16.16
2019-05-09T12:23:24.138Z,15.99
2019-05-09T12:24:24.117Z,15.76
2019-05-09T12:25:24.120Z,15.43
2019-05-09T12:26:24.093Z,15.15
2019-05-09T12:27:24.109Z,15.13
2019-05-09T12:28:24.088Z,15.09
2019-05-09T12:29:24.072Z,15.03
2019-05-09T12:30:24.051Z,14.94
2019-05-09T12:31:24.044Z,14.93
2019-05-09T12:32:24.029Z,14.91
2019-05-09T12:33:24.047Z,14.82
2019-05-09T12:34:24.066Z,14.86
2019-05-09T12:35:24.010Z,14.90
2019-05-09T12:36:23.995Z,14.75
2019-05-09T12:37:24.057Z,14.78
2019-05-09T12:38:23.978Z,14.86
2019-05-09T12:39:23.960Z,14.71
2019-05-09T12:40:23.958Z,14.79
2019-05-09T12:41:23.944Z,14.85
2019-05-09T12:42:24.001Z,14.79
2019-05-09T12:43:23.926Z,14.83
2019-05-09T12:44:25.112Z,14.91
2019-05-09T12:45:23.900Z,14.93
2019-05-09T12:46:23.899Z,14.90
2019-05-09T12:47:23.885Z,14.94
2019-05-09T12:48:23.870Z,14.87
2019-05-09T12:49:23.853Z,15.05
2019-05-09T12:50:23.841Z,15.20
2019-05-09T12:51:23.872Z,15.23
2019-05-09T12:52:23.809Z,15.40
2019-05-09T12:53:23.814Z,15.62
2019-05-09T12:54:23.785Z,15.80
2019-05-09T12:55:23.868Z,15.91
2019-05-09T12:56:23.765Z,15.91
2019-05-09T12:57:23.751Z,15.92
2019-05-09T12:58:23.771Z,15.76
2019-05-09T12:59:23.733Z,15.52
2019-05-09T13:00:23.758Z,15.41
2019-05-09T13:01:23.714Z,15.38